createdAt,value
2023-04-24T00:02:24.232Z,99596.13
2023-04-24T00:07:25.883Z,99587.03
2023-04-24T00:12:27.823Z,99584.25
2023-04-24T00:17:29.408Z,99578.47
2023-04-24T00:22:31.978Z,99584.97
2023-04-24T00:27:33.495Z,99577.75
2023-04-24T00:32:35.082Z,99572.28
2023-04-24T00:37:36.672Z,99568.94
2023-04-24T00:42:38.570Z,99567.81
2023-04-24T00:47:40.390Z,99567.13
2023-04-24T00:52:42.102Z,99560.34
2023-04-24T00:57:44.906Z,99567.34
2023-04-24T01:02:47.089Z,99567.81
2023-04-24T01:07:48.914Z,99571.22
2023-04-24T01:12:51.103Z,99577.38
2023-04-24T01:17:52.663Z,99582.34
2023-04-24T01:22:56.235Z,99581.88
2023-04-24T01:27:58.393Z,99585.03
2023-04-24T01:33:00.153Z,99601.66
2023-04-24T01:38:01.787Z,99593.88
2023-04-24T01:43:03.611Z,99608.28
2023-04-24T01:48:05.749Z,99603.22
2023-04-24T01:53:07.371Z,99592.38
2023-04-24T01:58:09.289Z,99594.44
2023-04-24T02:03:11.045Z,99579.72
2023-04-24T02:08:12.797Z,99583.88
2023-04-24T02:13:14.303Z,99592.72
2023-04-24T02:18:15.902Z,99599.78
2023-04-24T02:23:17.417Z,99602.63
2023-04-24T02:28:20.939Z,99604.13
2023-04-24T02:33:22.631Z,99615.81
2023-04-24T02:38:24.146Z,99627.31
2023-04-24T02:43:25.694Z,99630.00
2023-04-24T02:48:27.312Z,99635.09
2023-04-24T02:53:28.822Z,99650.25
2023-04-24T02:58:30.415Z,99657.22
2023-04-24T03:03:32.104Z,99663.84
2023-04-24T03:08:33.854Z,99667.25
2023-04-24T03:13:35.387Z,99662.47
2023-04-24T03:18:36.898Z,99664.56
2023-04-24T03:23:40.245Z,99657.19
2023-04-24T03:28:42.828Z,99658.47
2023-04-24T03:33:44.683Z,99668.63
2023-04-24T03:38:46.385Z,99669.88
2023-04-24T03:44:09.136Z,99669.06
2023-04-24T03:49:11.513Z,99655.81
2023-04-24T03:54:18.909Z,99647.78
2023-04-24T03:59:21.015Z,99649.13
2023-04-24T04:04:33.982Z,99670.06
2023-04-24T04:09:44.141Z,99660.41
2023-04-24T04:14:45.779Z,99664.00
2023-04-24T04:19:47.395Z,99667.63
2023-04-24T04:24:49.367Z,99676.06
2023-04-24T04:29:55.349Z,99678.09
2023-04-24T04:34:57.027Z,99679.69
2023-04-24T04:40:03.132Z,99687.53
2023-04-24T04:45:12.819Z,99678.47
2023-04-24T04:50:32.296Z,99687.47
2023-04-24T04:55:40.276Z,99690.09
2023-04-24T05:00:46.848Z,99688.47
2023-04-24T05:05:55.361Z,99689.03
2023-04-24T05:10:57.679Z,99695.75
2023-04-24T05:16:01.853Z,99698.00
2023-04-24T05:21:05.753Z,99696.78
2023-04-24T05:26:08.036Z,99704.97
2023-04-24T05:31:10.280Z,99712.00
2023-04-24T05:36:12.565Z,99714.19
2023-04-24T05:41:14.110Z,99719.44
2023-04-24T05:46:16.862Z,99721.66
2023-04-24T05:51:18.641Z,99728.28
2023-04-24T05:56:20.755Z,99729.72
2023-04-24T06:01:24.569Z,99736.22
2023-04-24T06:06:33.779Z,99732.31
2023-04-24T06:11:35.399Z,99740.00
2023-04-24T06:16:37.472Z,99743.03
2023-04-24T06:21:46.768Z,99749.53
2023-04-24T06:26:48.380Z,99749.09
2023-04-24T06:31:49.915Z,99758.34
2023-04-24T06:36:51.512Z,99751.19
2023-04-24T06:41:53.032Z,99758.28
2023-04-24T06:46:55.624Z,99774.41
2023-04-24T06:51:57.180Z,99766.34
2023-04-24T06:56:58.932Z,99772.56
2023-04-24T07:02:00.531Z,99767.53
2023-04-24T07:07:03.751Z,99767.34
2023-04-24T07:12:05.439Z,99773.59
2023-04-24T07:17:07.353Z,99782.63
2023-04-24T07:22:08.888Z,99790.31
2023-04-24T07:27:10.439Z,99781.84
2023-04-24T07:32:11.965Z,99792.50
2023-04-24T07:37:13.553Z,99789.84
2023-04-24T07:42:15.018Z,99808.97
2023-04-24T07:47:16.585Z,99812.19
2023-04-24T07:52:18.236Z,99831.06
2023-04-24T07:57:19.802Z,99843.03
2023-04-24T08:02:21.411Z,99865.16
2023-04-24T08:07:24.615Z,99869.38
2023-04-24T08:12:26.302Z,99876.22
2023-04-24T08:17:27.992Z,99881.44
2023-04-24T08:22:29.671Z,99901.03
2023-04-24T08:27:31.242Z,99906.47
2023-04-24T08:32:33.100Z,99921.19
2023-04-24T08:37:34.886Z,99937.00
2023-04-24T08:42:38.304Z,99960.13
2023-04-24T08:47:41.437Z,99958.19
2023-04-24T08:52:43.775Z,99967.84
2023-04-24T08:57:46.301Z,99964.75
2023-04-24T09:02:50.487Z,99959.31
2023-04-24T09:07:57.474Z,99966.81
2023-04-24T09:12:59.672Z,99982.19
2023-04-24T09:18:01.569Z,99997.00
2023-04-24T09:23:03.256Z,99995.06
2023-04-24T09:28:05.840Z,99985.63
2023-04-24T09:33:14.487Z,100005.91
2023-04-24T09:38:15.993Z,100022.81
2023-04-24T09:43:17.558Z,100040.34
2023-04-24T09:48:19.113Z,100052.94
2023-04-24T09:53:25.391Z,100050.47
2023-04-24T09:58:27.223Z,100057.09
2023-04-24T10:03:33.229Z,100068.47
2023-04-24T10:08:36.360Z,100070.72
2023-04-24T10:13:38.562Z,100083.84
2023-04-24T10:18:40.733Z,100085.72
2023-04-24T10:23:43.205Z,100092.28
2023-04-24T10:28:48.493Z,100093.91
2023-04-24T10:33:52.423Z,100101.34
2023-04-24T10:38:57.103Z,100107.50
2023-04-24T10:44:09.071Z,100106.03
2023-04-24T10:49:10.671Z,100123.06
2023-04-24T10:54:28.243Z,100117.69
2023-04-24T10:59:36.118Z,100130.88
2023-04-24T11:04:37.759Z,100135.50
2023-04-24T11:09:39.816Z,100137.13
2023-04-24T11:14:57.108Z,100128.63
2023-04-24T11:20:15.845Z,100143.41
2023-04-24T11:25:31.322Z,100149.78
2023-04-24T11:30:34.104Z,100156.72
2023-04-24T11:35:39.927Z,100183.31
2023-04-24T11:40:41.676Z,100176.69
2023-04-24T11:45:49.845Z,100180.44
2023-04-24T11:50:51.512Z,100175.31
2023-04-24T11:55:53.060Z,100171.00
2023-04-24T12:00:58.269Z,100176.72
2023-04-24T12:06:10.287Z,100188.81
2023-04-24T12:11:11.929Z,100191.22
2023-04-24T12:16:13.805Z,100191.63
2023-04-24T12:21:21.337Z,100198.44
2023-04-24T12:26:24.187Z,100198.38
2023-04-24T12:31:25.740Z,100197.47
2023-04-24T12:36:27.312Z,100206.59
2023-04-24T12:41:31.744Z,100212.66
2023-04-24T12:46:33.377Z,100207.28
2023-04-24T12:51:34.901Z,100207.41
2023-04-24T12:56:36.407Z,100213.44
2023-04-24T13:01:37.980Z,100220.16
2023-04-24T13:06:39.557Z,100223.91
2023-04-24T13:11:41.120Z,100221.09
2023-04-24T13:16:42.713Z,100224.84
2023-04-24T13:21:44.272Z,100219.03
2023-04-24T13:26:45.766Z,100226.78
2023-04-24T13:31:47.840Z,100230.13
2023-04-24T13:36:53.195Z,100228.13
2023-04-24T13:41:55.294Z,100229.47
2023-04-24T13:46:57.049Z,100220.25
2023-04-24T13:51:58.954Z,100227.84
2023-04-24T13:57:00.639Z,100224.34
2023-04-24T14:02:02.122Z,100229.69
2023-04-24T14:07:03.691Z,100235.88
2023-04-24T14:12:05.364Z,100236.25
2023-04-24T14:17:07.000Z,100231.03
2023-04-24T14:22:08.592Z,100229.75
2023-04-24T14:27:10.160Z,100237.78
2023-04-24T14:32:11.786Z,100233.66
2023-04-24T14:37:13.355Z,100237.03
2023-04-24T14:42:14.909Z,100233.53
2023-04-24T14:47:16.866Z,100240.06
2023-04-24T14:52:18.492Z,100250.66
2023-04-24T14:57:20.004Z,100251.19
2023-04-24T15:02:22.466Z,100252.44
2023-04-24T15:07:24.152Z,100248.50
2023-04-24T15:12:25.937Z,100251.28
2023-04-24T15:17:27.850Z,100238.66
2023-04-24T15:22:29.393Z,100253.44
2023-04-24T15:27:40.842Z,100254.00
2023-04-24T15:32:42.409Z,100257.44
2023-04-24T15:37:44.643Z,100262.88
2023-04-24T15:42:46.346Z,100260.91
2023-04-24T15:47:47.972Z,100261.97
2023-04-24T15:52:49.637Z,100252.81
2023-04-24T15:57:51.169Z,100259.91
2023-04-24T16:02:52.825Z,100262.56
2023-04-24T16:07:54.434Z,100263.22
2023-04-24T16:12:56.173Z,100265.50
2023-04-24T16:17:57.853Z,100278.31
2023-04-24T16:22:59.368Z,100271.66
2023-04-24T16:28:00.955Z,100261.75
2023-04-24T16:33:02.623Z,100265.28
2023-04-24T16:38:04.216Z,100262.75
2023-04-24T16:43:05.717Z,100273.31
2023-04-24T16:48:07.382Z,100271.94
2023-04-24T16:53:08.916Z,100283.34
2023-04-24T16:58:10.480Z,100285.16
2023-04-24T17:03:13.135Z,100275.47
2023-04-24T17:08:14.960Z,100277.66
2023-04-24T17:13:16.460Z,100279.22
2023-04-24T17:18:18.095Z,100276.06
2023-04-24T17:23:20.824Z,100290.56
2023-04-24T17:28:28.026Z,100289.81
2023-04-24T17:33:30.967Z,100295.22
2023-04-24T17:38:33.007Z,100296.72
2023-04-24T17:43:34.503Z,100291.97
2023-04-24T17:48:36.054Z,100301.47
2023-04-24T17:53:37.726Z,100300.88
2023-04-24T17:58:39.388Z,100303.91
2023-04-24T18:03:41.047Z,100303.53
2023-04-24T18:08:43.917Z,100310.66
2023-04-24T18:13:45.427Z,100304.66
2023-04-24T18:18:47.500Z,100309.53
2023-04-24T18:23:49.241Z,100318.47
2023-04-24T18:28:50.876Z,100321.53
2023-04-24T18:33:52.480Z,100325.78
2023-04-24T18:38:54.127Z,100331.81
2023-04-24T18:43:55.633Z,100333.69
2023-04-24T18:48:57.177Z,100341.16
2023-04-24T18:53:58.795Z,100344.00
2023-04-24T18:59:00.291Z,100361.19
2023-04-24T19:04:01.926Z,100351.06
2023-04-24T19:09:03.830Z,100364.19
2023-04-24T19:14:05.337Z,100362.75
2023-04-24T19:19:06.930Z,100368.78
2023-04-24T19:24:08.721Z,100379.44
2023-04-24T19:29:10.260Z,100382.78
2023-04-24T19:34:11.822Z,100391.22
2023-04-24T19:39:13.328Z,100393.47
2023-04-24T19:44:14.881Z,100396.25
2023-04-24T19:49:16.414Z,100396.19
2023-04-24T19:54:18.000Z,100387.31
2023-04-24T19:59:22.708Z,100397.94
2023-04-24T20:04:24.286Z,100392.25
2023-04-24T20:09:25.976Z,100381.69
2023-04-24T20:14:27.534Z,100383.13
2023-04-24T20:19:29.079Z,100386.38
2023-04-24T20:24:30.608Z,100390.13
2023-04-24T20:29:32.158Z,100397.56
2023-04-24T20:34:33.839Z,100395.13
2023-04-24T20:39:35.352Z,100398.91
2023-04-24T20:44:39.876Z,100401.88
2023-04-24T20:49:41.397Z,100401.38
2023-04-24T20:54:43.023Z,100404.59
2023-04-24T20:59:44.538Z,100408.16
2023-04-24T21:04:46.116Z,100408.41
2023-04-24T21:09:47.672Z,100407.66
2023-04-24T21:14:51.082Z,100410.16
2023-04-24T21:19:53.055Z,100413.28
2023-04-24T21:24:54.597Z,100417.63
2023-04-24T21:29:56.408Z,100412.41
2023-04-24T21:34:57.919Z,100405.50
2023-04-24T21:39:59.427Z,100407.81
2023-04-24T21:45:00.988Z,100396.00
2023-04-24T21:50:02.743Z,100388.16
2023-04-24T21:55:04.641Z,100402.47
2023-04-24T22:00:07.232Z,100403.38
2023-04-24T22:05:09.571Z,100399.84
2023-04-24T22:10:14.038Z,100402.00
2023-04-24T22:15:15.559Z,100399.53
2023-04-24T22:20:17.133Z,100403.25
2023-04-24T22:25:18.635Z,100395.78
2023-04-24T22:30:20.285Z,100398.81
2023-04-24T22:35:21.898Z,100399.25
2023-04-24T22:40:24.981Z,100403.38
2023-04-24T22:45:26.842Z,100402.47
2023-04-24T22:50:28.378Z,100408.81
2023-04-24T22:55:30.192Z,100399.44
2023-04-24T23:00:31.773Z,100393.50
2023-04-24T23:05:33.345Z,100402.69
2023-04-24T23:10:34.895Z,100410.16
2023-04-24T23:15:36.677Z,100402.59
2023-04-24T23:20:38.357Z,100396.34
2023-04-24T23:25:40.160Z,100391.13
2023-04-24T23:30:41.670Z,100398.47
2023-04-24T23:35:43.196Z,100398.72
2023-04-24T23:40:44.822Z,100395.22
2023-04-24T23:45:46.367Z,100403.31
2023-04-24T23:50:48.044Z,100397.97
2023-04-24T23:55:49.593Z,100405.09
